Time;durP1;ratioP1;P1;durP2;ratioP2;P2;SDS_P1;SDS_P2;PMS_P1;PMS_P2;Temp;Humidity;BMP_temperature;BMP_pressure;BME280_temperature;BME280_humidity;BME280_pressure;Samples;Min_cycle;Max_cycle;Signal;HPM_P1;HPM_P2
2021/04/29 00:00:24;;;;;;;7.97;5.53;;;;;;;11.76;88.65;94705.38;1052599;28;20080;-69
2021/04/29 00:00:55;;;;;;;10.13;5.90;;;;;;;11.77;88.51;94707.72;1052590;28;20066;-69
2021/04/29 00:01:25;;;;;;;13.10;6.03;;;;;;;11.80;89.31;94717.03;1052637;28;20024;-69
2021/04/29 00:01:55;;;;;;;9.63;5.77;;;;;;;11.76;89.07;94708.03;1052625;28;20402;-69
2021/04/29 00:02:26;;;;;;;8.43;4.90;;;;;;;11.76;88.21;94705.38;1052473;28;20016;-69
2021/04/29 00:02:56;;;;;;;7.63;5.20;;;;;;;11.78;88.43;94705.88;1052407;28;20051;-70
2021/04/29 00:03:27;;;;;;;9.13;4.93;;;;;;;11.78;88.51;94706.66;1052574;28;20020;-69
2021/04/29 00:03:57;;;;;;;11.50;4.63;;;;;;;11.79;88.24;94710.13;1052587;28;20381;-69
2021/04/29 00:04:27;;;;;;;7.20;4.60;;;;;;;11.79;88.48;94704.75;1052198;28;20469;-69
2021/04/29 00:04:58;;;;;;;7.07;4.97;;;;;;;11.78;88.83;94712.00;1043861;28;20028;-69
2021/04/29 00:05:28;;;;;;;8.07;4.63;;;;;;;11.79;88.71;94710.91;1043952;28;20021;-71
2021/04/29 00:05:59;;;;;;;9.90;5.17;;;;;;;11.78;88.49;94713.88;1043809;28;20021;-69
2021/04/29 00:06:29;;;;;;;7.77;5.00;;;;;;;11.79;88.91;94712.78;1047759;28;20024;-69
2021/04/29 00:07:00;;;;;;;6.63;4.63;;;;;;;11.79;88.38;94721.59;1052550;28;20027;-70
2021/04/29 00:07:30;;;;;;;6.73;4.80;;;;;;;11.80;88.22;94709.78;1052530;28;20016;-70
2021/04/29 00:08:00;;;;;;;6.93;4.20;;;;;;;11.82;88.13;94712.97;1052447;28;20027;-70
2021/04/29 00:08:34;;;;;;;7.17;4.30;;;;;;;11.82;87.93;94712.97;1052379;28;20016;-69
2021/04/29 00:09:05;;;;;;;7.70;4.38;;;;;;;11.80;87.90;94712.47;1052093;28;20028;-69
2021/04/29 00:09:35;;;;;;;7.43;4.60;;;;;;;11.81;87.83;94711.38;1052196;28;20016;-69
2021/04/29 00:10:07;;;;;;;6.33;4.50;;;;;;;11.81;88.36;94710.56;1052173;28;20024;-69
2021/04/29 00:10:37;;;;;;;8.57;4.57;;;;;;;11.81;88.26;94711.38;1052177;28;20038;-70
2021/04/29 00:11:08;;;;;;;7.23;4.50;;;;;;;11.84;88.57;94707.34;1052294;28;20020;-69
2021/04/29 00:11:39;;;;;;;9.50;4.55;;;;;;;11.84;88.70;94710.00;1052215;28;20024;-69
2021/04/29 00:12:09;;;;;;;9.57;4.73;;;;;;;11.84;88.57;94701.97;1047964;28;20020;-69
2021/04/29 00:12:40;;;;;;;8.17;4.83;;;;;;;11.86;88.30;94707.78;1048211;28;20036;-70
2021/04/29 00:13:10;;;;;;;6.97;4.83;;;;;;;11.88;88.60;94702.94;1052285;28;20043;-69
2021/04/29 00:13:40;;;;;;;7.10;4.67;;;;;;;11.89;88.53;94707.19;1052268;28;20081;-70
2021/04/29 00:14:11;;;;;;;6.47;4.20;;;;;;;11.86;88.54;94711.25;1052588;28;20012;-70
2021/04/29 00:14:42;;;;;;;6.20;4.20;;;;;;;11.87;88.29;94699.44;1052631;28;20032;-70
2021/04/29 00:15:13;;;;;;;6.43;4.67;;;;;;;11.86;88.19;94705.91;1052538;28;20041;-69
2021/04/29 00:15:44;;;;;;;7.00;4.30;;;;;;;11.84;88.25;94710.78;1056318;28;20035;-70
2021/04/29 00:16:15;;;;;;;8.25;4.45;;;;;;;11.87;88.22;94709.38;1056347;28;20018;-69
2021/04/29 00:16:45;;;;;;;7.97;4.73;;;;;;;11.89;88.24;94702.63;1056390;28;20093;-69
2021/04/29 00:17:15;;;;;;;6.73;4.63;;;;;;;11.92;88.13;94702.00;1056377;28;20008;-70
2021/04/29 00:17:46;;;;;;;8.67;4.77;;;;;;;11.93;87.75;94703.59;1052541;28;20373;-70
2021/04/29 00:18:17;;;;;;;7.73;4.70;;;;;;;11.94;88.84;94694.47;1052484;28;20016;-70
2021/04/29 00:18:47;;;;;;;8.73;4.53;;;;;;;11.94;88.87;94699.81;1052642;28;20026;-70
2021/04/29 00:19:17;;;;;;;6.50;4.47;;;;;;;11.94;88.82;94702.50;1051920;28;20051;-70
2021/04/29 00:19:48;;;;;;;7.70;5.03;;;;;;;11.97;87.67;94693.03;1052061;28;20701;-70
2021/04/29 00:20:20;;;;;;;7.87;5.10;;;;;;;11.98;88.44;94700.00;1052222;28;20004;-70
2021/04/29 00:20:55;;;;;;;7.30;5.10;;;;;;;11.97;88.30;94698.38;1052209;28;20640;-70
2021/04/29 00:21:25;;;;;;;6.55;4.75;;;;;;;11.94;88.43;94696.34;1052568;28;20023;-70
2021/04/29 00:21:56;;;;;;;7.40;4.70;;;;;;;11.96;88.77;94702.16;1052446;28;20024;-70
2021/04/29 00:22:26;;;;;;;6.93;5.07;;;;;;;11.96;88.41;94696.81;1052569;28;20073;-70
2021/04/29 00:22:57;;;;;;;11.13;5.43;;;;;;;11.94;88.03;94699.81;1052174;28;20069;-70
2021/04/29 00:23:28;;;;;;;7.03;4.50;;;;;;;11.92;88.74;94701.19;1052211;28;20427;-70
2021/04/29 00:23:58;;;;;;;6.35;4.82;;;;;;;11.93;88.64;94695.56;1052195;28;20024;-69
2021/04/29 00:24:28;;;;;;;7.00;4.90;;;;;;;11.94;88.70;94699.81;1048080;28;20503;-70
2021/04/29 00:24:59;;;;;;;10.70;4.90;;;;;;;11.94;88.78;94694.47;1052194;28;20448;-70
2021/04/29 00:25:29;;;;;;;6.47;4.83;;;;;;;11.94;89.25;94696.34;1047949;28;20023;-70
2021/04/29 00:26:00;;;;;;;7.10;5.20;;;;;;;11.97;89.15;94701.06;1048011;28;20028;-69
2021/04/29 00:26:30;;;;;;;8.97;5.37;;;;;;;11.96;89.06;94689.56;1052174;28;20007;-70
2021/04/29 00:27:00;;;;;;;8.17;4.93;;;;;;;11.97;88.81;94699.19;1052199;28;20074;-70
2021/04/29 00:27:31;;;;;;;7.03;5.00;;;;;;;12.01;88.82;94695.88;1052590;28;20024;-70
2021/04/29 00:28:01;;;;;;;7.53;5.30;;;;;;;11.99;89.20;94692.75;1052483;28;20351;-70
2021/04/29 00:28:32;;;;;;;6.43;4.93;;;;;;;11.97;88.55;94688.47;1052486;28;20020;-70
2021/04/29 00:29:02;;;;;;;7.93;5.27;;;;;;;11.95;89.20;94688.00;1052544;28;20108;-70
2021/04/29 00:29:33;;;;;;;9.57;5.00;;;;;;;11.94;88.23;94683.75;1052508;28;20065;-69
2021/04/29 00:30:05;;;;;;;6.50;4.77;;;;;;;11.96;88.34;94691.47;1052446;28;20484;-69
2021/04/29 00:30:35;;;;;;;7.38;5.20;;;;;;;11.94;88.70;94691.78;1052096;28;20107;-70
2021/04/29 00:31:05;;;;;;;10.47;5.23;;;;;;;11.97;87.80;94688.47;1052451;28;20020;-70
2021/04/29 00:31:45;;;;;;;8.80;5.17;;;;;;;11.98;88.55;94686.59;1052481;28;20373;-70
2021/04/29 00:32:15;;;;;;;8.57;5.30;;;;;;;11.96;88.40;94683.44;1052068;28;20028;-70
2021/04/29 00:32:46;;;;;;;8.40;5.30;;;;;;;11.97;89.24;94685.78;1052463;28;20390;-69
2021/04/29 00:33:16;;;;;;;7.30;5.13;;;;;;;11.99;88.73;94690.06;1052482;28;20046;-69
2021/04/29 00:33:46;;;;;;;7.50;5.00;;;;;;;12.00;89.17;94691.63;1052497;28;20120;-70
2021/04/29 00:34:17;;;;;;;10.10;5.33;;;;;;;11.98;88.57;94681.25;1052421;28;20024;-70
2021/04/29 00:34:47;;;;;;;8.47;5.43;;;;;;;12.01;88.59;94687.84;1052499;28;20040;-70
2021/04/29 00:35:18;;;;;;;7.73;5.47;;;;;;;12.02;88.91;94684.06;1052477;28;20035;-70
2021/04/29 00:35:48;;;;;;;11.07;5.93;;;;;;;12.00;88.59;94686.28;1052445;28;20051;-69
2021/04/29 00:36:19;;;;;;;8.33;5.70;;;;;;;11.99;88.79;94687.38;1052504;28;20020;-70
2021/04/29 00:36:50;;;;;;;9.77;5.50;;;;;;;11.94;89.28;94686.44;1052075;28;20020;-69
2021/04/29 00:37:20;;;;;;;12.88;5.40;;;;;;;11.94;88.95;94686.44;1052217;28;20020;-70
2021/04/29 00:37:51;;;;;;;6.97;4.73;;;;;;;11.94;89.28;94689.09;1052249;28;20542;-70
2021/04/29 00:38:21;;;;;;;7.73;5.20;;;;;;;11.95;89.06;94679.97;1052152;28;20415;-70
2021/04/29 00:38:52;;;;;;;7.93;5.50;;;;;;;11.97;88.16;94691.16;1052538;28;20479;-69
2021/04/29 00:39:23;;;;;;;8.87;5.37;;;;;;;11.99;88.71;94690.06;1052470;28;20035;-70
2021/04/29 00:39:54;;;;;;;9.82;5.45;;;;;;;11.95;89.34;94690.69;1052429;28;20058;-71
2021/04/29 00:40:24;;;;;;;8.40;5.53;;;;;;;11.96;89.49;94692.25;1052498;28;20070;-69
2021/04/29 00:40:55;;;;;;;11.10;5.20;;;;;;;11.96;89.52;94686.09;1052528;28;20050;-69
2021/04/29 00:41:25;;;;;;;7.07;5.33;;;;;;;11.99;89.99;94698.88;1052488;28;20024;-70
2021/04/29 00:41:56;;;;;;;7.50;5.20;;;;;;;11.96;89.34;94689.56;1052431;28;20016;-70
2021/04/29 00:42:26;;;;;;;8.23;5.40;;;;;;;11.97;89.22;94693.03;1052132;28;20116;-70
2021/04/29 00:42:56;;;;;;;9.80;5.60;;;;;;;11.96;89.53;94686.91;1052127;28;20028;-70
2021/04/29 00:43:27;;;;;;;7.57;5.03;;;;;;;11.96;89.51;94694.94;1052160;28;20027;-70
2021/04/29 00:43:57;;;;;;;7.37;4.97;;;;;;;11.97;89.42;94691.16;1052158;28;20036;-70
2021/04/29 00:44:28;;;;;;;8.03;4.73;;;;;;;11.99;88.77;94690.06;1052341;28;20020;-70
2021/04/29 00:44:58;;;;;;;6.77;5.30;;;;;;;11.96;89.57;94689.56;1052388;28;20373;-70
2021/04/29 00:45:29;;;;;;;7.60;5.20;;;;;;;11.99;88.90;94695.41;1052340;28;20040;-70
2021/04/29 00:45:59;;;;;;;10.30;5.33;;;;;;;12.00;88.83;94689.75;1052526;28;20027;-71
2021/04/29 00:46:29;;;;;;;8.83;5.50;;;;;;;12.01;89.25;94693.22;1052495;28;20073;-70
2021/04/29 00:47:00;;;;;;;9.83;5.13;;;;;;;12.03;88.46;94686.47;1052151;28;20032;-70
2021/04/29 00:47:30;;;;;;;8.07;5.40;;;;;;;12.05;89.26;94691.50;1052038;28;20020;-70
2021/04/29 00:48:01;;;;;;;7.10;5.10;;;;;;;12.04;88.48;94695.28;1047913;28;20088;-70
2021/04/29 00:48:31;;;;;;;7.23;5.07;;;;;;;12.06;88.79;94701.09;1048080;28;20489;-70
2021/04/29 00:49:02;;;;;;;10.07;5.83;;;;;;;12.07;88.35;94692.75;1047788;28;20233;-70
2021/04/29 00:49:36;;;;;;;8.20;5.50;;;;;;;12.07;88.43;94691.97;1048048;28;20032;-70
2021/04/29 00:50:08;;;;;;;8.13;5.32;;;;;;;12.08;88.96;94698.91;1048027;28;20039;-70
2021/04/29 00:50:38;;;;;;;7.45;5.75;;;;;;;12.08;88.81;94696.22;1044607;28;20021;-70
2021/04/29 00:51:09;;;;;;;8.00;5.20;;;;;;;12.07;88.30;94698.09;1047964;28;20465;-70
2021/04/29 00:51:39;;;;;;;7.17;5.07;;;;;;;12.07;88.16;94702.69;1048606;28;20015;-70
2021/04/29 00:52:10;;;;;;;8.50;5.47;;;;;;;12.07;88.23;94702.69;1052162;28;20019;-69
2021/04/29 00:52:40;;;;;;;7.10;5.00;;;;;;;12.06;88.87;94701.09;1052471;28;20023;-69
2021/04/29 00:53:10;;;;;;;8.30;5.63;;;;;;;12.06;89.03;94701.88;1052445;28;20066;-69
2021/04/29 00:53:42;;;;;;;8.00;5.37;;;;;;;12.04;89.19;94703.31;1052527;28;20016;-70
2021/04/29 00:54:12;;;;;;;7.25;5.22;;;;;;;12.03;89.32;94697.19;1052060;28;20435;-70
2021/04/29 00:54:43;;;;;;;9.03;5.40;;;;;;;12.03;89.39;94699.03;1052122;28;20031;-69
2021/04/29 00:55:13;;;;;;;7.33;5.00;;;;;;;12.04;89.61;94696.06;1047721;28;20032;-69
2021/04/29 00:55:44;;;;;;;7.53;5.30;;;;;;;12.04;89.31;94692.59;1043686;28;20091;-70
2021/04/29 00:56:14;;;;;;;8.20;5.50;;;;;;;11.99;89.85;94704.25;1047840;28;20362;-70
2021/04/29 00:56:45;;;;;;;7.67;5.20;;;;;;;11.96;90.12;94705.63;1048005;28;20028;-70
2021/04/29 00:57:15;;;;;;;7.93;5.43;;;;;;;11.91;90.14;94710.34;1052013;28;20465;-70
2021/04/29 00:57:46;;;;;;;12.60;5.50;;;;;;;11.89;90.55;94699.16;1052561;28;20453;-69
2021/04/29 00:58:16;;;;;;;6.73;4.70;;;;;;;11.87;90.37;94704.81;1052466;28;20016;-69
2021/04/29 00:58:47;;;;;;;10.77;5.40;;;;;;;11.87;91.08;94710.16;1052594;28;20023;-70
2021/04/29 00:59:18;;;;;;;9.07;5.45;;;;;;;11.90;90.53;94698.84;1052801;28;20058;-70
2021/04/29 00:59:48;;;;;;;7.37;5.10;;;;;;;11.88;90.79;94703.72;1054356;28;20640;-70
2021/04/29 01:00:19;;;;;;;8.20;5.10;;;;;;;11.89;90.52;94712.53;1050311;28;20013;-70
2021/04/29 01:00:49;;;;;;;6.55;5.03;;;;;;;11.91;90.53;94708.44;1050198;28;20016;-70
2021/04/29 01:01:20;;;;;;;8.83;5.50;;;;;;;11.93;90.25;94702.81;1054309;28;20024;-70
2021/04/29 01:02:08;;;;;;;6.90;5.10;;;;;;;11.91;89.83;94705.78;1054137;28;20110;-70
2021/04/29 01:02:41;;;;;;;6.78;4.65;;;;;;;11.87;90.11;94707.47;1051948;28;20015;-70
2021/04/29 01:03:16;;;;;;;6.85;4.75;;;;;;;11.86;90.93;94707.78;1048083;28;20353;-70
2021/04/29 01:04:01;;;;;;;11.05;5.15;;;;;;;11.82;91.13;94710.28;1043732;28;20071;-71
2021/04/29 01:04:37;;;;;;;10.15;4.65;;;;;;;11.84;90.04;94710.78;1039815;28;20584;-70
2021/04/29 01:05:15;;;;;;;8.07;4.75;;;;;;;11.86;90.01;94705.91;1043207;28;20021;-70
2021/04/29 01:05:49;;;;;;;7.30;4.90;;;;;;;11.89;89.40;94717.91;1047604;28;20424;-70
2021/04/29 01:06:22;;;;;;;10.15;4.85;;;;;;;11.89;90.18;94707.97;1049247;28;20016;-70
2021/04/29 01:06:58;;;;;;;8.57;5.15;;;;;;;11.88;90.67;94708.28;1043545;28;20033;-70
2021/04/29 01:07:31;;;;;;;7.97;5.25;;;;;;;11.87;90.42;94715.50;1039750;28;20021;-70
2021/04/29 01:08:13;;;;;;;8.18;5.10;;;;;;;11.87;91.06;94722.75;1039708;28;20021;-70
2021/04/29 01:09:11;;;;;;;7.13;4.53;;;;;;;11.83;90.29;94709.22;1045631;28;20465;-70
2021/04/29 01:09:44;;;;;;;8.30;5.00;;;;;;;11.84;90.55;94716.16;1047967;28;20056;-70
2021/04/29 01:10:19;;;;;;;6.38;4.78;;;;;;;11.85;90.45;94716.94;1043964;28;20071;-70
2021/04/29 01:10:55;;;;;;;7.38;4.72;;;;;;;11.85;89.85;94712.38;1039739;28;20410;-70
2021/04/29 01:11:28;;;;;;;8.20;5.03;;;;;;;11.87;90.08;94714.72;1037654;28;20563;-70
2021/04/29 01:12:04;;;;;;;10.15;4.80;;;;;;;11.81;90.77;94713.25;1043173;28;20014;-70
2021/04/29 01:12:40;;;;;;;8.25;4.60;;;;;;;11.80;90.18;94709.00;1043978;28;20358;-70
2021/04/29 01:13:12;;;;;;;8.68;4.50;;;;;;;11.82;89.91;94710.28;1041762;28;20017;-70
2021/04/29 01:13:44;;;;;;;7.05;4.18;;;;;;;11.82;89.87;94714.88;1043799;28;20617;-70
2021/04/29 01:14:15;;;;;;;6.68;4.47;;;;;;;11.81;90.31;94713.25;1040967;28;20017;-70
2021/04/29 01:14:46;;;;;;;7.37;4.50;;;;;;;11.80;89.98;94712.47;1040962;28;20041;-70
2021/04/29 01:15:17;;;;;;;7.10;3.95;;;;;;;11.78;90.28;94722.72;1036122;28;20033;-70
2021/04/29 01:15:47;;;;;;;7.53;4.30;;;;;;;11.71;91.31;94715.09;1039986;28;20072;-70
2021/04/29 01:16:19;;;;;;;7.90;4.13;;;;;;;11.76;90.49;94706.16;1035814;28;20017;-70
2021/04/29 01:16:50;;;;;;;6.82;4.20;;;;;;;11.78;90.67;94717.34;1040261;28;20041;-70
2021/04/29 01:17:20;;;;;;;8.37;4.67;;;;;;;11.79;90.57;94713.56;1039795;28;20060;-70
2021/04/29 01:17:50;;;;;;;7.03;4.10;;;;;;;11.78;91.06;94714.69;1040807;28;20044;-70
2021/04/29 01:18:23;;;;;;;7.73;4.20;;;;;;;11.77;90.30;94710.41;1040472;28;20033;-70
2021/04/29 01:18:53;;;;;;;7.03;4.13;;;;;;;11.76;90.88;94708.81;1041270;28;20121;-70
2021/04/29 01:19:32;;;;;;;7.57;4.70;;;;;;;11.73;91.07;94720.16;1049170;28;20401;-70
2021/04/29 01:20:28;;;;;;;9.60;4.95;;;;;;;11.68;90.95;94717.63;1048765;28;20021;-70
2021/04/29 01:20:59;;;;;;;7.55;4.78;;;;;;;11.69;91.44;94719.19;1043023;28;20084;-70
2021/04/29 01:21:29;;;;;;;6.30;5.00;;;;;;;11.62;91.08;94713.50;1048965;28;20436;-70
2021/04/29 01:22:00;;;;;;;6.93;4.27;;;;;;;11.56;91.92;94712.03;1048638;28;20020;-70
2021/04/29 01:22:32;;;;;;;7.10;4.50;;;;;;;11.58;92.08;94709.84;1040229;28;20052;-70
2021/04/29 01:23:03;;;;;;;8.32;4.60;;;;;;;11.58;91.65;94716.00;1036295;28;20029;-70
2021/04/29 01:24:02;;;;;;;6.50;4.20;;;;;;;11.53;92.37;94718.78;1036818;28;20034;-70
2021/04/29 01:24:38;;;;;;;5.78;4.05;;;;;;;11.49;92.34;94715.16;1048796;28;20517;-70
2021/04/29 01:25:14;;;;;;;6.97;4.40;;;;;;;11.47;92.31;94712.00;1044666;28;20478;-70
2021/04/29 01:25:45;;;;;;;7.97;4.45;;;;;;;11.51;92.47;94714.84;1040560;28;20025;-70
2021/04/29 01:26:36;;;;;;;6.37;4.23;;;;;;;11.48;91.86;94712.78;1042064;28;20017;-70
2021/04/29 01:27:06;;;;;;;5.32;4.13;;;;;;;11.47;92.51;94711.22;1048091;28;20020;-70
2021/04/29 01:27:36;;;;;;;7.07;4.17;;;;;;;11.49;92.68;94722.38;1052288;28;20032;-70
2021/04/29 01:28:07;;;;;;;8.17;4.33;;;;;;;11.51;92.81;94717.50;1052875;28;20106;-70
2021/04/29 01:28:37;;;;;;;5.63;4.07;;;;;;;11.51;92.66;94712.94;1052905;28;20115;-70
2021/04/29 01:29:09;;;;;;;6.83;4.03;;;;;;;11.51;92.00;94715.63;1052947;28;20345;-70
2021/04/29 01:29:39;;;;;;;6.38;4.40;;;;;;;11.52;92.15;94716.44;1052936;28;20024;-70
2021/04/29 01:30:11;;;;;;;6.60;4.17;;;;;;;11.53;92.13;94720.69;1044521;28;20017;-70
2021/04/29 01:30:42;;;;;;;8.68;4.20;;;;;;;11.54;92.29;94719.59;1045011;28;20068;-70
2021/04/29 01:31:13;;;;;;;7.40;4.57;;;;;;;11.55;92.39;94716.59;1040457;28;20017;-70
2021/04/29 01:31:44;;;;;;;7.43;4.00;;;;;;;11.58;92.14;94717.88;1037096;28;20045;-70
2021/04/29 01:32:15;;;;;;;5.97;3.83;;;;;;;11.60;91.95;94715.69;1036326;28;20025;-70
2021/04/29 01:32:45;;;;;;;6.93;4.07;;;;;;;11.59;91.73;94709.53;1036778;28;20383;-70
2021/04/29 01:33:15;;;;;;;6.30;4.00;;;;;;;11.59;91.93;94706.06;1040572;28;20033;-70
2021/04/29 01:33:46;;;;;;;8.97;3.97;;;;;;;11.61;91.61;94711.91;1036639;28;20022;-70
2021/04/29 01:34:17;;;;;;;7.50;4.03;;;;;;;11.61;91.49;94712.69;1040445;28;20433;-70
2021/04/29 01:34:48;;;;;;;6.60;4.22;;;;;;;11.59;91.97;94711.44;1040673;28;20088;-70
2021/04/29 01:35:18;;;;;;;6.63;4.10;;;;;;;11.62;91.88;94708.16;1040790;28;20021;-70
2021/04/29 01:35:48;;;;;;;7.17;4.03;;;;;;;11.59;91.75;94706.06;1048491;28;20028;-70
2021/04/29 01:36:20;;;;;;;6.07;3.70;;;;;;;11.58;92.17;94710.63;1048692;28;20038;-70
2021/04/29 01:36:51;;;;;;;7.45;4.00;;;;;;;11.62;92.00;94708.16;1044676;28;20033;-70
2021/04/29 01:37:21;;;;;;;6.25;3.92;;;;;;;11.59;92.01;94700.72;1044500;28;20559;-71
2021/04/29 01:37:51;;;;;;;7.17;4.23;;;;;;;11.60;91.92;94711.13;1040468;28;20022;-70
2021/04/29 01:38:22;;;;;;;8.47;4.60;;;;;;;11.59;91.67;94703.41;1036491;28;20022;-70
2021/04/29 01:38:52;;;;;;;7.43;4.10;;;;;;;11.61;91.50;94707.34;1036438;28;20017;-70
2021/04/29 01:39:23;;;;;;;5.90;4.03;;;;;;;11.64;91.39;94711.28;1040632;28;20017;-70
2021/04/29 01:39:53;;;;;;;11.47;4.43;;;;;;;11.65;90.86;94715.53;1044657;28;20025;-70
2021/04/29 01:40:24;;;;;;;7.37;4.70;;;;;;;11.62;91.72;94705.47;1040343;28;20017;-70
2021/04/29 01:40:54;;;;;;;7.87;4.30;;;;;;;11.63;91.37;94707.03;1040389;28;20025;-70
2021/04/29 01:41:24;;;;;;;7.63;4.50;;;;;;;11.64;91.39;94709.41;1044608;28;20021;-70
2021/04/29 01:41:55;;;;;;;6.70;3.80;;;;;;;11.63;91.73;94713.19;1040481;28;20351;-71
2021/04/29 01:42:25;;;;;;;6.93;4.13;;;;;;;11.64;91.30;94708.63;1036388;28;20021;-70
2021/04/29 01:42:56;;;;;;;8.90;4.10;;;;;;;11.58;91.53;94709.84;1036292;28;20104;-70
2021/04/29 01:43:26;;;;;;;6.40;4.10;;;;;;;11.59;91.37;94709.53;1036478;28;20029;-70
2021/04/29 01:43:57;;;;;;;6.43;3.90;;;;;;;11.63;91.25;94715.06;1040566;28;20056;-70
2021/04/29 01:44:27;;;;;;;6.70;4.07;;;;;;;11.66;90.75;94714.44;1048704;28;20025;-70
2021/04/29 01:44:58;;;;;;;6.20;4.20;;;;;;;11.68;91.14;94717.63;1048733;28;20066;-70
2021/04/29 01:45:28;;;;;;;7.23;4.20;;;;;;;11.69;91.55;94724.53;1048278;28;20049;-70
2021/04/29 01:46:01;;;;;;;9.50;3.77;;;;;;;11.69;91.03;94714.63;1048637;28;20075;-70
2021/04/29 01:46:32;;;;;;;7.28;4.35;;;;;;;11.71;91.21;94716.97;1044544;28;20032;-70
2021/04/29 01:47:03;;;;;;;6.68;3.88;;;;;;;11.73;91.12;94717.50;1045033;28;20112;-70
2021/04/29 01:47:34;;;;;;;8.10;4.70;;;;;;;11.74;90.88;94716.38;1044978;28;20032;-70
2021/04/29 01:48:05;;;;;;;6.18;4.22;;;;;;;11.75;91.30;94711.81;1049040;28;20165;-70
2021/04/29 01:48:35;;;;;;;7.87;4.40;;;;;;;11.76;91.28;94718.75;1052938;28;20019;-70
2021/04/29 01:49:06;;;;;;;6.93;3.87;;;;;;;11.77;91.17;94710.41;1048719;28;20072;-70
2021/04/29 01:49:36;;;;;;;5.35;3.65;;;;;;;11.78;91.64;94712.00;1048672;28;20028;-70
2021/04/29 01:50:09;;;;;;;7.17;4.23;;;;;;;11.75;91.36;94719.84;1044674;28;20390;-70
2021/04/29 01:50:39;;;;;;;5.90;4.13;;;;;;;11.75;91.54;94717.97;1044992;28;20017;-70
2021/04/29 01:51:10;;;;;;;7.17;4.00;;;;;;;11.78;91.46;94719.25;1048599;28;20474;-70
2021/04/29 01:51:40;;;;;;;6.40;4.33;;;;;;;11.74;91.60;94711.03;1044904;28;20033;-70
2021/04/29 01:52:11;;;;;;;7.40;4.23;;;;;;;11.66;91.79;94717.91;1044569;28;20025;-70
2021/04/29 01:52:41;;;;;;;7.37;4.10;;;;;;;11.65;92.00;94716.34;1040368;28;20025;-70
2021/04/29 01:53:12;;;;;;;7.03;4.30;;;;;;;11.62;92.67;94716.97;1032359;28;20026;-70
2021/04/29 01:53:42;;;;;;;9.57;4.43;;;;;;;11.60;92.73;94715.69;1040231;28;20538;-70
2021/04/29 01:54:13;;;;;;;5.60;3.73;;;;;;;11.63;92.31;94717.75;1040450;28;20010;-70
2021/04/29 01:54:43;;;;;;;5.40;4.07;;;;;;;11.62;92.70;94713.50;1036322;28;20022;-70
2021/04/29 01:55:14;;;;;;;6.23;4.40;;;;;;;11.63;92.23;94715.06;1036312;28;20391;-70
2021/04/29 01:55:45;;;;;;;6.03;4.67;;;;;;;11.64;92.37;94719.31;1040602;28;20459;-70
2021/04/29 01:56:15;;;;;;;6.88;4.20;;;;;;;11.62;92.85;94719.63;1044720;28;20474;-70
2021/04/29 01:56:46;;;;;;;6.77;4.47;;;;;;;11.61;92.22;94718.03;1048854;28;20020;-70
2021/04/29 01:57:18;;;;;;;7.33;4.70;;;;;;;11.63;92.67;94717.75;1044495;28;20025;-70
2021/04/29 01:57:48;;;;;;;6.05;4.28;;;;;;;11.63;92.32;94712.41;1044837;28;20047;-70
2021/04/29 01:58:20;;;;;;;6.43;4.40;;;;;;;11.67;91.91;94716.03;1035931;28;20037;-70
2021/04/29 01:58:50;;;;;;;6.80;4.70;;;;;;;11.68;92.66;94717.63;1037045;28;20100;-70
2021/04/29 01:59:21;;;;;;;7.27;4.90;;;;;;;11.67;92.16;94722.19;1044545;28;20025;-70
2021/04/29 01:59:52;;;;;;;10.13;4.40;;;;;;;11.67;92.71;94721.41;1040921;28;20648;-70
2021/04/29 02:00:22;;;;;;;6.67;4.27;;;;;;;11.68;92.32;94723.75;1052832;28;20020;-70
2021/04/29 02:00:53;;;;;;;6.63;4.30;;;;;;;11.68;92.45;94718.41;1052819;28;20024;-70
2021/04/29 02:01:25;;;;;;;6.80;4.40;;;;;;;11.67;92.81;94721.41;1052821;28;20023;-70
2021/04/29 02:01:55;;;;;;;6.45;4.13;;;;;;;11.67;92.28;94721.41;1053086;28;20124;-70
2021/04/29 02:02:26;;;;;;;7.47;4.10;;;;;;;11.67;92.00;94722.19;1053090;28;20069;-70
2021/04/29 02:02:59;;;;;;;7.97;4.40;;;;;;;11.67;92.43;94714.16;1052936;28;20142;-70
2021/04/29 02:03:29;;;;;;;8.30;4.80;;;;;;;11.65;92.66;94723.56;1052967;28;20012;-70
2021/04/29 02:04:00;;;;;;;8.33;4.40;;;;;;;11.61;92.11;94723.38;1053106;28;20063;-70
2021/04/29 02:04:30;;;;;;;5.47;4.07;;;;;;;11.61;92.88;94719.94;1053105;28;20461;-70
2021/04/29 02:05:01;;;;;;;6.20;4.30;;;;;;;11.63;92.45;94715.06;1053192;28;20460;-70
2021/04/29 02:05:31;;;;;;;9.70;4.47;;;;;;;11.61;92.87;94720.72;1053133;28;20027;-70
2021/04/29 02:06:01;;;;;;;7.00;4.03;;;;;;;11.59;92.52;94719.44;1052804;28;20038;-70
2021/04/29 02:06:32;;;;;;;7.60;4.30;;;;;;;11.60;92.38;94721.03;1053079;28;20526;-70
2021/04/29 02:07:02;;;;;;;9.23;4.47;;;;;;;11.61;92.04;94726.06;1053128;28;20038;-70
2021/04/29 02:07:33;;;;;;;6.50;4.30;;;;;;;11.63;92.23;94725.78;1056986;28;20448;-70
2021/04/29 02:08:04;;;;;;;6.70;4.23;;;;;;;11.58;92.68;94724.03;1056999;28;20024;-70
2021/04/29 02:08:35;;;;;;;8.20;4.50;;;;;;;11.59;92.35;94722.13;1056894;28;20055;-70
2021/04/29 02:09:06;;;;;;;6.10;4.50;;;;;;;11.62;92.84;94718.84;1052812;28;20028;-70
2021/04/29 02:09:36;;;;;;;7.63;3.92;;;;;;;11.63;91.89;94720.44;1052742;28;20099;-70
2021/04/29 02:10:07;;;;;;;6.47;4.00;;;;;;;11.57;91.85;94727.81;1052756;28;20469;-70
2021/04/29 02:10:38;;;;;;;7.68;4.13;;;;;;;11.55;92.90;94719.28;1052842;28;20024;-70
2021/04/29 02:11:09;;;;;;;7.30;3.73;;;;;;;11.53;92.88;94723.34;1052577;28;20431;-70
2021/04/29 02:11:55;;;;;;;4.95;3.72;;;;;;;11.47;93.42;94727.25;1052714;28;20546;-70
2021/04/29 02:12:25;;;;;;;6.97;4.22;;;;;;;11.41;93.17;94727.38;1044347;28;20013;-70
2021/04/29 02:12:56;;;;;;;6.13;3.50;;;;;;;11.37;93.57;94722.94;1040374;28;20029;-70
2021/04/29 02:13:27;;;;;;;5.33;3.60;;;;;;;11.38;93.84;94728.00;1040217;28;20032;-70
2021/04/29 02:13:58;;;;;;;7.63;3.40;;;;;;;11.36;93.57;94727.50;1037672;28;20387;-70
2021/04/29 02:14:48;;;;;;;4.67;3.37;;;;;;;11.41;93.07;94723.91;1040733;28;20017;-70
2021/04/29 02:15:19;;;;;;;5.20;3.42;;;;;;;11.42;93.00;94718.25;1048603;28;20373;-70
2021/04/29 02:16:10;;;;;;;4.47;3.10;;;;;;;11.38;93.32;94722.63;1047133;28;20035;-70
2021/04/29 02:16:47;;;;;;;4.55;2.88;;;;;;;11.43;93.18;94719.06;1052024;28;20500;-70
2021/04/29 02:17:34;;;;;;;4.97;3.10;;;;;;;11.45;92.54;94720.31;1048618;28;20442;-70
2021/04/29 02:18:07;;;;;;;4.90;3.05;;;;;;;11.49;92.13;94725.06;1052782;28;20032;-71
2021/04/29 02:18:38;;;;;;;5.15;3.00;;;;;;;11.45;92.58;94722.97;1048449;28;20023;-70
2021/04/29 02:19:09;;;;;;;5.38;3.25;;;;;;;11.37;93.00;94717.59;1040274;28;20075;-70
2021/04/29 02:19:40;;;;;;;6.90;3.20;;;;;;;11.33;92.39;94714.75;1040322;28;20092;-70
2021/04/29 02:20:12;;;;;;;4.38;3.00;;;;;;;11.34;92.80;94720.88;1040550;28;20025;-70
2021/04/29 02:20:43;;;;;;;4.80;3.05;;;;;;;11.31;93.12;94722.28;1045131;28;20021;-70
2021/04/29 02:21:18;;;;;;;3.67;2.50;;;;;;;11.36;93.30;94726.69;1052732;28;20029;-71
2021/04/29 02:21:48;;;;;;;4.22;2.90;;;;;;;11.36;92.86;94721.34;1052446;28;20089;-71
2021/04/29 02:22:19;;;;;;;6.97;2.97;;;;;;;11.36;93.18;94724.84;1052756;28;20534;-71
2021/04/29 02:22:49;;;;;;;5.17;3.20;;;;;;;11.36;92.82;94722.16;1044413;28;20063;-71
2021/04/29 02:23:21;;;;;;;5.23;2.57;;;;;;;11.36;92.36;94727.50;1036250;28;20052;-70
2021/04/29 02:23:51;;;;;;;4.85;2.70;;;;;;;11.30;93.29;94723.38;1040359;28;20025;-70
2021/04/29 02:24:21;;;;;;;4.90;2.60;;;;;;;11.35;92.98;94731.25;1036404;28;20026;-71
2021/04/29 02:24:55;;;;;;;3.97;2.50;;;;;;;11.36;92.86;94722.16;1032229;28;20034;-70
2021/04/29 02:25:27;;;;;;;5.40;2.47;;;;;;;11.31;93.09;94724.97;1036573;28;20387;-70
2021/04/29 02:25:57;;;;;;;4.13;2.50;;;;;;;11.29;92.98;94727.13;1036798;28;20445;-70
2021/04/29 02:26:28;;;;;;;4.80;2.40;;;;;;;11.27;93.19;94724.00;1041592;28;20022;-71
2021/04/29 02:26:58;;;;;;;5.23;2.63;;;;;;;11.27;93.52;94728.56;1040407;28;20564;-70
2021/04/29 02:27:28;;;;;;;5.13;2.73;;;;;;;11.30;93.65;94727.94;1044417;28;20413;-70
2021/04/29 02:27:59;;;;;;;5.57;2.73;;;;;;;11.30;92.96;94727.94;1040220;28;20025;-70
2021/04/29 02:28:29;;;;;;;4.73;2.53;;;;;;;11.26;94.16;94726.94;1036289;28;20056;-70
2021/04/29 02:29:01;;;;;;;4.17;2.60;;;;;;;11.27;93.32;94725.88;1031873;28;20022;-70
2021/04/29 02:29:31;;;;;;;4.50;2.50;;;;;;;11.27;93.07;94723.19;1035701;28;20060;-70